createdAt,value
2022-08-10T00:00:21.834Z,15.49
2022-08-10T00:01:25.118Z,15.46
2022-08-10T00:02:27.762Z,15.45
2022-08-10T00:03:31.229Z,15.44
2022-08-10T00:04:33.284Z,15.44
2022-08-10T00:05:43.734Z,15.41
2022-08-10T00:06:57.924Z,15.39
2022-08-10T00:08:00.207Z,15.39
2022-08-10T00:09:03.787Z,15.38
2022-08-10T00:10:07.229Z,15.37
2022-08-10T00:11:15.239Z,15.35
2022-08-10T00:12:19.992Z,15.34
2022-08-10T00:13:24.219Z,15.33
2022-08-10T00:14:26.312Z,15.31
2022-08-10T00:15:52.058Z,15.31
2022-08-10T00:16:52.381Z,15.28
2022-08-10T00:17:54.384Z,15.27
2022-08-10T00:18:57.389Z,15.26
2022-08-10T00:20:03.595Z,15.24
2022-08-10T00:21:09.220Z,15.21
2022-08-10T00:22:12.659Z,15.20
2022-08-10T00:23:20.365Z,15.19
2022-08-10T00:24:22.497Z,15.17
2022-08-10T00:25:25.762Z,15.16
2022-08-10T00:27:52.952Z,15.14
2022-08-10T00:28:08.663Z,15.13
2022-08-10T00:29:10.731Z,15.12
2022-08-10T00:30:15.333Z,15.12
2022-08-10T00:31:17.430Z,15.10
2022-08-10T00:32:20.712Z,15.09
2022-08-10T00:33:22.765Z,15.09
2022-08-10T00:34:25.827Z,15.08
2022-08-10T00:35:47.477Z,15.06
2022-08-10T00:36:49.613Z,15.03
2022-08-10T00:37:56.338Z,15.03
2022-08-10T00:39:00.293Z,15.03
2022-08-10T00:40:04.212Z,15.03
2022-08-10T00:41:06.349Z,15.01
2022-08-10T00:42:11.350Z,15.00
2022-08-10T00:43:14.864Z,15.00
2022-08-10T00:44:26.682Z,14.99
2022-08-10T00:45:28.684Z,14.98
2022-08-10T00:46:31.771Z,14.97
2022-08-10T00:47:37.257Z,14.96
2022-08-10T00:48:40.823Z,14.96
2022-08-10T00:49:43.463Z,14.93
2022-08-10T00:50:47.158Z,14.93
2022-08-10T00:51:49.487Z,14.91
2022-08-10T00:52:54.365Z,14.90
2022-08-10T00:53:56.451Z,14.88
2022-08-10T00:55:00.323Z,14.88
2022-08-10T00:57:14.520Z,14.86
2022-08-10T00:57:26.619Z,14.84
2022-08-10T00:58:29.524Z,14.83
2022-08-10T00:59:33.360Z,14.81
2022-08-10T01:00:35.440Z,14.82
2022-08-10T01:02:10.010Z,14.79
2022-08-10T01:03:01.592Z,14.79
2022-08-10T01:04:40.070Z,14.78
2022-08-10T01:05:28.650Z,14.76
2022-08-10T01:06:38.684Z,14.75
2022-08-10T01:08:03.922Z,14.73
2022-08-10T01:09:11.918Z,14.72
2022-08-10T01:10:26.884Z,14.70
2022-08-10T01:12:27.796Z,14.68
2022-08-10T01:13:06.640Z,14.66
2022-08-10T01:14:21.734Z,14.66
2022-08-10T01:15:29.507Z,14.63
2022-08-10T01:16:37.044Z,14.63
2022-08-10T01:17:53.547Z,14.62
2022-08-10T01:19:04.782Z,14.59
2022-08-10T01:20:30.173Z,14.58
2022-08-10T01:21:59.725Z,14.57
2022-08-10T01:23:40.107Z,14.54
2022-08-10T01:25:18.709Z,14.53
2022-08-10T01:26:37.274Z,14.51
2022-08-10T01:27:56.752Z,14.49
2022-08-10T01:29:16.891Z,14.48
2022-08-10T01:30:24.156Z,14.47
2022-08-10T01:31:30.584Z,14.46
2022-08-10T01:32:47.864Z,14.40
2022-08-10T01:33:58.670Z,14.43
2022-08-10T01:35:19.441Z,14.42
2022-08-10T01:36:32.213Z,14.40
2022-08-10T01:37:40.624Z,14.39
2022-08-10T01:38:48.861Z,14.38
2022-08-10T01:39:57.737Z,14.37
2022-08-10T01:41:05.524Z,14.36
2022-08-10T01:42:13.372Z,14.36
2022-08-10T01:43:17.645Z,14.34
2022-08-10T01:44:29.580Z,14.36
2022-08-10T01:45:45.474Z,14.34
2022-08-10T01:46:56.593Z,14.33
2022-08-10T01:48:20.719Z,14.33
2022-08-10T01:49:26.913Z,14.33
2022-08-10T01:50:32.291Z,14.32
2022-08-10T01:51:39.987Z,14.31
2022-08-10T01:52:46.661Z,14.30
2022-08-10T01:53:56.573Z,14.28
2022-08-10T01:54:59.210Z,14.26
2022-08-10T01:56:03.604Z,14.28
2022-08-10T01:57:09.042Z,14.26
2022-08-10T01:58:13.810Z,14.24
2022-08-10T01:59:20.014Z,14.23
2022-08-10T02:00:23.313Z,14.23
2022-08-10T02:01:30.188Z,14.22
2022-08-10T02:02:36.386Z,14.21
2022-08-10T02:04:04.928Z,14.19
2022-08-10T02:05:06.602Z,14.19
2022-08-10T02:06:11.589Z,14.18
2022-08-10T02:07:19.373Z,14.15
2022-08-10T02:08:24.333Z,14.14
2022-08-10T02:09:30.273Z,14.13
2022-08-10T02:10:33.510Z,14.13
2022-08-10T02:12:06.582Z,14.12
2022-08-10T02:13:01.458Z,14.10
2022-08-10T02:14:04.884Z,14.09
2022-08-10T02:15:10.643Z,14.08
2022-08-10T02:16:15.157Z,14.07
2022-08-10T02:17:59.678Z,14.05
2022-08-10T02:18:45.270Z,14.04
2022-08-10T02:19:51.630Z,14.02
2022-08-10T02:20:57.246Z,14.01
2022-08-10T02:22:36.901Z,14.00
2022-08-10T02:23:26.530Z,13.99
2022-08-10T02:24:29.756Z,13.98
2022-08-10T02:25:42.166Z,13.95
2022-08-10T02:26:47.093Z,13.95
2022-08-10T02:27:52.280Z,13.95
2022-08-10T02:28:55.749Z,13.94
2022-08-10T02:30:00.148Z,13.93
2022-08-10T02:31:06.422Z,13.92
2022-08-10T02:32:10.848Z,13.93
2022-08-10T02:33:17.486Z,13.92
2022-08-10T02:34:21.287Z,13.91
2022-08-10T02:35:26.007Z,13.90
2022-08-10T02:36:36.158Z,13.90
2022-08-10T02:37:40.488Z,13.90
2022-08-10T02:38:58.064Z,13.89
2022-08-10T02:40:02.504Z,13.88
2022-08-10T02:45:13.193Z,13.87
2022-08-10T02:45:17.699Z,13.86
2022-08-10T02:45:24.631Z,13.85
2022-08-10T02:45:40.305Z,13.84
2022-08-10T02:46:49.385Z,13.82
2022-08-10T02:47:59.979Z,13.82
2022-08-10T02:49:05.504Z,13.81
2022-08-10T02:50:13.919Z,13.80
2022-08-10T02:51:18.661Z,13.80
2022-08-10T02:52:26.290Z,13.79
2022-08-10T02:53:55.672Z,13.79
2022-08-10T02:55:06.060Z,13.78
2022-08-10T02:56:25.371Z,13.76
2022-08-10T02:57:33.178Z,13.75
2022-08-10T02:58:42.957Z,13.74
2022-08-10T02:59:50.296Z,13.75
2022-08-10T03:00:55.733Z,13.73
2022-08-10T03:02:03.554Z,13.73
2022-08-10T03:03:06.130Z,13.72
2022-08-10T03:04:15.929Z,13.72
2022-08-10T03:05:19.285Z,13.72
2022-08-10T03:06:26.742Z,13.72
2022-08-10T03:07:43.065Z,13.72
2022-08-10T03:08:49.952Z,13.75
2022-08-10T03:09:54.153Z,13.77
2022-08-10T03:12:34.892Z,13.77
2022-08-10T03:12:51.509Z,13.77
2022-08-10T03:13:59.545Z,13.76
2022-08-10T03:15:03.736Z,13.75
2022-08-10T03:16:09.140Z,13.73
2022-08-10T03:17:12.663Z,13.73
2022-08-10T03:18:17.505Z,13.73
2022-08-10T03:20:33.641Z,13.73
2022-08-10T03:20:46.041Z,13.72
2022-08-10T03:21:50.033Z,13.72
2022-08-10T03:22:55.846Z,13.72
2022-08-10T03:23:59.535Z,13.70
2022-08-10T03:25:03.575Z,13.70
2022-08-10T03:26:07.092Z,13.70
2022-08-10T03:27:11.672Z,13.70
2022-08-10T03:28:18.224Z,13.72
2022-08-10T03:29:24.975Z,13.72
2022-08-10T03:30:33.275Z,13.73
2022-08-10T03:31:40.168Z,13.73
2022-08-10T03:32:44.041Z,13.73
2022-08-10T03:33:48.164Z,13.72
2022-08-10T03:34:52.257Z,13.70
2022-08-10T03:36:40.509Z,13.71
2022-08-10T03:37:35.477Z,13.71
2022-08-10T03:38:40.395Z,13.71
2022-08-10T03:39:43.755Z,13.72
2022-08-10T03:40:47.962Z,13.71
2022-08-10T03:41:55.988Z,13.70
2022-08-10T03:42:59.075Z,13.69
2022-08-10T03:44:04.243Z,13.68
2022-08-10T03:45:07.968Z,13.69
2022-08-10T03:46:13.508Z,13.69
2022-08-10T03:47:17.268Z,13.69
2022-08-10T03:48:20.534Z,13.71
2022-08-10T03:49:26.156Z,13.71
2022-08-10T03:50:51.312Z,13.71
2022-08-10T03:51:54.573Z,13.73
2022-08-10T03:52:58.395Z,13.72
2022-08-10T03:54:06.980Z,13.71
2022-08-10T03:55:11.167Z,13.70
2022-08-10T03:56:29.155Z,13.68
2022-08-10T03:57:34.727Z,13.69
2022-08-10T03:58:36.851Z,13.69
2022-08-10T03:59:40.492Z,13.70
2022-08-10T04:00:43.364Z,13.70
2022-08-10T04:02:46.061Z,13.71
2022-08-10T04:03:37.493Z,13.70
2022-08-10T04:04:39.894Z,13.68
2022-08-10T04:05:44.835Z,13.70
2022-08-10T04:06:47.157Z,13.69
2022-08-10T04:07:54.459Z,13.69
2022-08-10T04:08:56.569Z,13.70
2022-08-10T04:09:59.616Z,13.70
2022-08-10T04:11:01.938Z,13.71
2022-08-10T04:12:05.641Z,13.72
2022-08-10T04:13:07.719Z,13.73
2022-08-10T04:14:35.626Z,13.75
2022-08-10T04:15:33.797Z,13.77
2022-08-10T04:16:35.790Z,13.78
2022-08-10T04:17:56.729Z,13.81
2022-08-10T04:19:02.223Z,13.82
2022-08-10T04:20:08.042Z,13.83
2022-08-10T04:21:16.746Z,13.85
2022-08-10T04:22:22.155Z,13.84
2022-08-10T04:23:28.319Z,13.83
2022-08-10T04:24:34.171Z,13.82
2022-08-10T04:25:39.275Z,13.81
2022-08-10T04:26:42.475Z,13.81
2022-08-10T04:27:46.369Z,13.82
2022-08-10T04:28:49.045Z,13.83
2022-08-10T04:29:55.291Z,13.83
2022-08-10T04:31:00.002Z,13.84
2022-08-10T04:32:04.731Z,13.86
2022-08-10T04:33:09.269Z,13.88
2022-08-10T04:34:13.605Z,13.90
2022-08-10T04:35:19.973Z,13.92
2022-08-10T04:36:24.757Z,13.93
2022-08-10T04:37:28.439Z,13.95
2022-08-10T04:38:52.448Z,13.97
2022-08-10T04:39:55.478Z,13.97
2022-08-10T04:40:59.266Z,13.97
2022-08-10T04:42:01.847Z,13.97
2022-08-10T04:43:12.499Z,13.98
2022-08-10T04:44:16.111Z,13.98
2022-08-10T04:45:19.377Z,13.99
2022-08-10T04:46:55.530Z,14.01
2022-08-10T04:47:57.456Z,14.03
2022-08-10T04:49:04.798Z,14.03
2022-08-10T04:50:07.994Z,14.05
2022-08-10T04:51:18.016Z,14.08
2022-08-10T04:52:21.939Z,14.08
2022-08-10T04:53:29.096Z,14.09
2022-08-10T04:54:31.183Z,14.12
2022-08-10T04:55:34.538Z,14.14
2022-08-10T04:56:38.697Z,14.16
2022-08-10T04:57:41.795Z,14.19
2022-08-10T04:58:44.065Z,14.21
2022-08-10T04:59:47.561Z,14.22
2022-08-10T05:00:50.119Z,14.24
2022-08-10T05:02:21.955Z,14.28
2022-08-10T05:03:16.406Z,14.30
2022-08-10T05:04:35.783Z,14.32
2022-08-10T05:05:41.680Z,14.35
2022-08-10T05:06:43.764Z,14.37
2022-08-10T05:07:54.104Z,14.40
2022-08-10T05:08:59.168Z,14.43
2022-08-10T05:10:16.878Z,14.46
2022-08-10T05:11:24.213Z,14.48
2022-08-10T05:12:28.230Z,14.53
2022-08-10T05:13:31.337Z,14.56
2022-08-10T05:14:33.500Z,14.61
2022-08-10T05:15:36.692Z,14.65
2022-08-10T05:16:38.767Z,14.67
2022-08-10T05:18:08.746Z,14.72
2022-08-10T05:19:05.571Z,14.76
2022-08-10T05:20:10.619Z,14.79
2022-08-10T05:21:12.770Z,14.83
2022-08-10T05:22:37.736Z,14.88
2022-08-10T05:23:41.539Z,14.92
2022-08-10T05:24:44.637Z,14.95
2022-08-10T05:26:07.985Z,15.02
2022-08-10T05:27:10.673Z,15.05
2022-08-10T05:28:13.946Z,15.09
2022-08-10T05:29:16.006Z,15.13
2022-08-10T05:30:22.970Z,15.16
2022-08-10T05:31:25.167Z,15.20
2022-08-10T05:32:31.544Z,15.27
2022-08-10T05:33:34.030Z,15.30
2022-08-10T05:34:37.165Z,15.35
2022-08-10T05:35:56.685Z,15.38
2022-08-10T05:37:00.746Z,15.43
2022-08-10T05:38:12.802Z,15.47
2022-08-10T05:39:18.869Z,15.52
2022-08-10T05:40:32.125Z,15.58
2022-08-10T05:41:35.496Z,15.63
2022-08-10T05:42:39.025Z,15.68
2022-08-10T05:43:42.626Z,15.73
2022-08-10T05:44:44.725Z,15.78
2022-08-10T05:46:19.999Z,15.81
2022-08-10T05:47:13.104Z,15.87
2022-08-10T05:48:54.365Z,15.93
2022-08-10T05:49:38.429Z,15.98
2022-08-10T05:50:40.843Z,16.04
2022-08-10T05:51:44.627Z,16.08
2022-08-10T05:52:47.231Z,16.13
2022-08-10T05:54:03.316Z,16.16
2022-08-10T05:55:11.161Z,16.21
2022-08-10T05:56:14.644Z,16.24
2022-08-10T05:57:19.695Z,16.27
2022-08-10T05:58:23.281Z,16.33
2022-08-10T06:00:11.249Z,16.36
2022-08-10T06:00:58.557Z,16.39
2022-08-10T06:02:33.082Z,16.43
2022-08-10T06:03:30.950Z,16.48
2022-08-10T06:04:38.647Z,16.52
2022-08-10T06:05:44.614Z,16.58
2022-08-10T06:06:48.891Z,16.63
2022-08-10T06:07:59.203Z,16.66
2022-08-10T06:09:02.399Z,16.71
2022-08-10T06:10:10.375Z,16.76
2022-08-10T06:12:27.901Z,16.81
2022-08-10T06:12:55.035Z,16.88
2022-08-10T06:14:19.204Z,16.93
2022-08-10T06:15:51.588Z,16.99
2022-08-10T06:16:46.540Z,17.04
2022-08-10T06:18:01.833Z,17.09
2022-08-10T06:19:05.753Z,17.14
2022-08-10T06:20:09.595Z,17.19
2022-08-10T06:21:13.370Z,17.23
2022-08-10T06:22:32.383Z,17.29
2022-08-10T06:23:36.388Z,17.33
2022-08-10T06:24:57.280Z,17.38
2022-08-10T06:26:11.295Z,17.42
2022-08-10T06:27:17.884Z,17.46
2022-08-10T06:28:24.800Z,17.55
2022-08-10T06:29:30.702Z,17.60
2022-08-10T06:30:34.905Z,17.65
2022-08-10T06:31:47.466Z,17.70
2022-08-10T06:32:57.295Z,17.75
2022-08-10T06:34:01.697Z,17.80
2022-08-10T06:35:24.153Z,17.85
2022-08-10T06:36:34.147Z,17.92
2022-08-10T06:37:39.293Z,17.95
2022-08-10T06:38:44.243Z,17.99
2022-08-10T06:39:48.882Z,18.04
2022-08-10T06:40:55.701Z,18.10
2022-08-10T06:42:24.212Z,18.17
2022-08-10T06:43:29.036Z,18.23
2022-08-10T06:44:41.472Z,18.28
2022-08-10T06:46:07.423Z,18.34
2022-08-10T06:47:14.655Z,18.41
2022-08-10T06:48:28.680Z,18.47
2022-08-10T06:49:32.882Z,18.53
2022-08-10T06:50:55.883Z,18.57
2022-08-10T06:52:16.292Z,18.65
2022-08-10T06:53:22.028Z,18.69
2022-08-10T06:54:27.445Z,18.75
2022-08-10T06:55:49.704Z,18.79
2022-08-10T06:57:19.576Z,18.86
2022-08-10T06:58:26.716Z,18.89
2022-08-10T06:59:37.297Z,18.91
2022-08-10T07:00:43.649Z,18.97
2022-08-10T07:01:50.918Z,19.01
2022-08-10T07:02:58.424Z,19.05
2022-08-10T07:04:03.397Z,19.09
2022-08-10T07:05:09.770Z,19.13
2022-08-10T07:06:15.081Z,19.17
2022-08-10T07:07:21.397Z,19.21
2022-08-10T07:08:27.106Z,19.24
2022-08-10T07:09:33.080Z,19.28
2022-08-10T07:10:41.215Z,19.32
2022-08-10T07:11:51.380Z,19.37
2022-08-10T07:12:57.850Z,19.40
2022-08-10T07:14:15.663Z,19.45
2022-08-10T07:15:22.004Z,19.50
2022-08-10T07:16:28.393Z,19.52
2022-08-10T07:17:38.799Z,19.54
2022-08-10T07:18:44.233Z,19.57
2022-08-10T07:19:56.045Z,19.62
2022-08-10T07:21:02.144Z,19.65
2022-08-10T07:22:07.108Z,19.70
2022-08-10T07:23:55.718Z,19.70
2022-08-10T07:24:42.450Z,19.78
2022-08-10T07:25:46.835Z,19.81
2022-08-10T07:26:54.303Z,19.83
2022-08-10T07:28:01.945Z,19.87
2022-08-10T07:29:06.610Z,19.91
2022-08-10T07:30:09.802Z,19.94
2022-08-10T07:31:54.861Z,19.96
2022-08-10T07:32:40.667Z,20.01
2022-08-10T07:33:43.642Z,20.04
2022-08-10T07:34:49.127Z,20.08
2022-08-10T07:35:52.331Z,20.12
2022-08-10T07:36:57.191Z,20.12
2022-08-10T07:38:04.708Z,20.18
2022-08-10T07:39:10.647Z,20.21
2022-08-10T07:40:15.093Z,20.26
2022-08-10T07:41:20.796Z,20.28
2022-08-10T07:42:25.660Z,20.35
2022-08-10T07:43:35.526Z,20.39
2022-08-10T07:44:41.305Z,20.43
2022-08-10T07:45:46.067Z,20.48
2022-08-10T07:46:52.817Z,20.52
2022-08-10T07:48:06.745Z,20.56
2022-08-10T07:49:16.108Z,20.61
2022-08-10T07:50:24.516Z,20.65
2022-08-10T07:51:29.337Z,20.68
2022-08-10T07:52:34.303Z,20.72
2022-08-10T07:53:44.767Z,20.69
2022-08-10T07:54:52.386Z,20.77
2022-08-10T07:56:07.879Z,20.79
2022-08-10T07:57:28.790Z,20.82
2022-08-10T07:58:39.761Z,20.86
2022-08-10T07:59:54.203Z,20.89
2022-08-10T08:00:58.456Z,20.92
2022-08-10T08:02:02.364Z,20.94
2022-08-10T08:03:07.496Z,20.97
2022-08-10T08:04:12.369Z,21.00
2022-08-10T08:05:55.148Z,21.03
2022-08-10T08:06:40.432Z,21.05
2022-08-10T08:08:11.112Z,21.11
2022-08-10T08:09:33.241Z,21.14
2022-08-10T08:11:09.790Z,21.19
2022-08-10T08:12:32.516Z,21.23
2022-08-10T08:13:40.666Z,21.25
2022-08-10T08:14:51.232Z,21.29
2022-08-10T08:16:19.396Z,21.31
2022-08-10T08:17:19.232Z,21.34
2022-08-10T08:18:25.706Z,21.37
2022-08-10T08:19:37.412Z,21.41
2022-08-10T08:20:49.942Z,21.45
2022-08-10T08:24:04.514Z,21.51
2022-08-10T08:24:04.979Z,21.49
2022-08-10T08:24:46.248Z,21.61
2022-08-10T08:25:49.215Z,21.64
2022-08-10T08:26:53.547Z,21.69
2022-08-10T08:27:58.139Z,21.73
2022-08-10T08:29:04.283Z,21.78
2022-08-10T08:30:09.732Z,21.80
2022-08-10T08:31:13.261Z,21.84
2022-08-10T08:32:18.995Z,21.88
2022-08-10T08:33:42.251Z,21.91
2022-08-10T08:34:47.992Z,21.97
2022-08-10T08:35:50.920Z,22.01
2022-08-10T08:38:27.638Z,22.04
2022-08-10T08:38:43.385Z,22.08
2022-08-10T08:39:47.455Z,22.10
2022-08-10T08:40:59.859Z,22.14
2022-08-10T08:42:15.582Z,22.14
2022-08-10T08:43:32.733Z,22.16
2022-08-10T08:44:52.337Z,22.17
2022-08-10T08:46:15.248Z,22.19
2022-08-10T08:48:03.924Z,22.20
2022-08-10T08:50:04.880Z,22.23
2022-08-10T08:51:08.783Z,22.27
2022-08-10T08:52:24.415Z,22.27
2022-08-10T08:54:03.160Z,22.31
2022-08-10T08:56:03.061Z,22.36
2022-08-10T08:56:50.005Z,22.37
2022-08-10T08:58:05.649Z,22.38
2022-08-10T08:59:25.086Z,22.42
2022-08-10T09:00:40.138Z,22.45
2022-08-10T09:01:54.612Z,22.48
2022-08-10T09:03:26.200Z,22.51
2022-08-10T09:04:47.613Z,22.55
2022-08-10T09:06:04.991Z,22.58
2022-08-10T09:08:00.851Z,22.61
2022-08-10T09:09:28.678Z,22.65
2022-08-10T09:10:51.328Z,22.69
2022-08-10T09:12:12.850Z,22.72
2022-08-10T09:13:26.618Z,22.77
2022-08-10T09:14:36.272Z,22.80
2022-08-10T09:15:51.753Z,22.84
2022-08-10T09:17:00.695Z,22.86
2022-08-10T09:18:09.042Z,22.91
2022-08-10T09:19:36.153Z,22.96
2022-08-10T09:20:42.692Z,23.02
2022-08-10T09:21:58.548Z,23.08
2022-08-10T09:24:01.426Z,23.15
2022-08-10T09:24:55.297Z,23.20
2022-08-10T09:26:03.113Z,23.22
2022-08-10T09:27:13.904Z,23.24
2022-08-10T09:28:26.638Z,23.25
2022-08-10T09:29:34.429Z,23.24
2022-08-10T09:31:10.796Z,23.26
2022-08-10T09:36:16.604Z,23.29
2022-08-10T09:36:21.005Z,23.33
2022-08-10T09:36:27.929Z,23.37
2022-08-10T09:37:05.114Z,23.42
2022-08-10T09:38:18.331Z,23.45
2022-08-10T09:40:12.392Z,23.48
2022-08-10T09:41:04.027Z,23.53
2022-08-10T09:42:14.959Z,23.56
2022-08-10T09:43:26.917Z,23.59
2022-08-10T09:44:58.035Z,23.66
2022-08-10T09:46:12.135Z,23.72
2022-08-10T09:48:00.065Z,23.77
2022-08-10T09:48:59.325Z,23.84
2022-08-10T09:50:12.455Z,23.88
2022-08-10T09:51:47.139Z,23.93
2022-08-10T09:53:04.400Z,23.98
2022-08-10T09:54:19.647Z,24.01
2022-08-10T09:56:17.382Z,24.03
2022-08-10T09:57:41.303Z,24.08
2022-08-10T09:59:26.937Z,24.15
2022-08-10T10:00:20.601Z,24.23
2022-08-10T10:02:02.470Z,24.32
2022-08-10T10:03:20.551Z,24.41
2022-08-10T10:04:39.387Z,24.47
2022-08-10T10:05:53.760Z,24.56
2022-08-10T10:06:56.840Z,24.61
2022-08-10T10:08:11.942Z,24.66
2022-08-10T10:09:26.727Z,24.70
2022-08-10T10:10:36.106Z,24.74
2022-08-10T10:12:09.668Z,24.78
2022-08-10T10:13:20.167Z,24.80
2022-08-10T10:15:24.454Z,24.82
2022-08-10T10:16:42.871Z,24.84
2022-08-10T10:18:00.610Z,24.84
2022-08-10T10:19:17.403Z,24.85
2022-08-10T10:20:26.062Z,24.86
2022-08-10T10:21:54.534Z,24.89
2022-08-10T10:23:08.625Z,24.90
2022-08-10T10:24:22.827Z,24.92
2022-08-10T10:25:50.089Z,24.88
2022-08-10T10:26:58.771Z,24.84
2022-08-10T10:28:13.457Z,24.81
2022-08-10T10:29:56.989Z,24.79
2022-08-10T10:31:05.889Z,24.77
2022-08-10T10:32:36.757Z,24.77
2022-08-10T10:33:55.390Z,24.79
2022-08-10T10:35:02.734Z,24.80
2022-08-10T10:36:09.050Z,24.83
2022-08-10T10:37:13.388Z,24.84
2022-08-10T10:38:21.429Z,24.86
2022-08-10T10:39:26.856Z,24.87
2022-08-10T10:40:35.378Z,24.90
2022-08-10T10:41:55.943Z,24.92
2022-08-10T10:43:25.419Z,24.97
2022-08-10T10:44:42.337Z,25.00
2022-08-10T10:45:56.497Z,25.02
2022-08-10T10:47:10.908Z,25.01
2022-08-10T10:48:17.624Z,25.01
2022-08-10T10:49:43.663Z,25.04
2022-08-10T10:50:59.781Z,25.06
2022-08-10T10:52:14.947Z,25.10
2022-08-10T10:53:54.161Z,25.13
2022-08-10T10:55:08.835Z,25.18
2022-08-10T10:56:21.842Z,25.20
2022-08-10T10:57:59.134Z,25.23
2022-08-10T10:59:35.524Z,25.27
2022-08-10T11:00:58.030Z,25.29
2022-08-10T11:02:15.024Z,25.32
2022-08-10T11:04:01.036Z,25.35
2022-08-10T11:05:19.241Z,25.40
2022-08-10T11:06:40.068Z,25.45
2022-08-10T11:08:01.448Z,25.48
2022-08-10T11:09:05.997Z,25.51
2022-08-10T11:10:33.588Z,25.55
2022-08-10T11:12:00.205Z,25.59
2022-08-10T11:14:24.950Z,25.63
2022-08-10T11:14:49.407Z,25.69
2022-08-10T11:16:01.490Z,25.75
2022-08-10T11:17:12.340Z,25.79
2022-08-10T11:19:00.069Z,25.82
2022-08-10T11:20:12.966Z,25.80
2022-08-10T11:21:27.201Z,25.88
2022-08-10T11:22:37.159Z,25.89
2022-08-10T11:24:48.089Z,25.91
2022-08-10T11:25:16.946Z,25.93
2022-08-10T11:26:28.605Z,25.96
2022-08-10T11:27:50.681Z,25.96
2022-08-10T11:29:03.563Z,25.97
2022-08-10T11:30:10.702Z,25.98
2022-08-10T11:31:21.832Z,26.03
2022-08-10T11:32:31.586Z,26.06
2022-08-10T11:34:04.054Z,26.12
2022-08-10T11:35:19.756Z,26.19
2022-08-10T11:36:31.524Z,26.26
2022-08-10T11:38:31.230Z,26.30
2022-08-10T11:39:17.126Z,26.36
2022-08-10T11:40:29.356Z,26.44
2022-08-10T11:42:12.552Z,26.49
2022-08-10T11:43:14.356Z,26.56
2022-08-10T11:44:26.730Z,26.61
2022-08-10T11:45:34.757Z,26.62
2022-08-10T11:46:42.753Z,26.65
2022-08-10T11:47:51.690Z,26.68
2022-08-10T11:49:04.099Z,26.71
2022-08-10T11:50:18.519Z,26.70
2022-08-10T11:51:25.786Z,26.73
2022-08-10T11:52:34.697Z,26.75
2022-08-10T11:53:47.074Z,26.76
2022-08-10T11:54:54.211Z,26.76
2022-08-10T11:55:58.851Z,26.79
2022-08-10T11:57:03.066Z,26.81
2022-08-10T11:58:23.773Z,26.81
2022-08-10T11:59:46.161Z,26.84
2022-08-10T12:00:49.617Z,26.84
2022-08-10T12:01:53.113Z,26.83
2022-08-10T12:02:59.417Z,26.88
2022-08-10T12:04:07.567Z,26.89
2022-08-10T12:05:19.908Z,26.94
2022-08-10T12:06:54.165Z,26.98
2022-08-10T12:10:06.363Z,27.03
2022-08-10T12:10:08.808Z,27.09
2022-08-10T12:10:42.710Z,27.16
2022-08-10T12:11:48.372Z,27.22
2022-08-10T12:12:55.423Z,27.27
2022-08-10T12:14:22.491Z,27.32
2022-08-10T12:15:33.937Z,27.36
2022-08-10T12:16:41.420Z,27.41
2022-08-10T12:17:49.873Z,27.43
2022-08-10T12:18:57.898Z,27.45
2022-08-10T12:20:06.943Z,27.49
2022-08-10T12:21:21.874Z,27.51
2022-08-10T12:22:31.636Z,27.54
2022-08-10T12:23:42.527Z,27.55
2022-08-10T12:24:50.565Z,27.58
2022-08-10T12:26:07.498Z,27.62
2022-08-10T12:27:13.171Z,27.63
2022-08-10T12:28:33.249Z,27.66
2022-08-10T12:29:54.963Z,27.68
2022-08-10T12:31:01.890Z,27.69
2022-08-10T12:32:07.837Z,27.70
2022-08-10T12:33:20.472Z,27.69
2022-08-10T12:34:35.458Z,27.69
2022-08-10T12:36:14.817Z,27.69
2022-08-10T12:37:24.087Z,27.71
2022-08-10T12:38:34.749Z,27.72
2022-08-10T12:39:49.305Z,27.74
2022-08-10T12:40:56.585Z,27.75
2022-08-10T12:42:06.451Z,27.75
2022-08-10T12:44:07.998Z,27.77
2022-08-10T12:44:55.312Z,27.78
2022-08-10T12:46:06.805Z,27.83
2022-08-10T12:47:19.140Z,27.87
2022-08-10T12:48:31.334Z,27.90
2022-08-10T12:49:37.520Z,27.91
2022-08-10T12:50:44.675Z,27.98
2022-08-10T12:51:55.772Z,28.04
2022-08-10T12:53:12.227Z,28.05
2022-08-10T12:54:32.717Z,28.05
2022-08-10T12:55:39.057Z,28.05
2022-08-10T12:56:46.415Z,28.01
2022-08-10T12:57:53.981Z,28.05
2022-08-10T12:59:01.469Z,28.06
2022-08-10T13:00:09.927Z,28.09
2022-08-10T13:01:24.365Z,28.10
2022-08-10T13:02:29.787Z,28.17
2022-08-10T13:04:21.025Z,28.23
2022-08-10T13:05:05.116Z,28.31
2022-08-10T13:06:09.626Z,28.41
2022-08-10T13:08:25.502Z,28.52
2022-08-10T13:08:55.567Z,28.62
2022-08-10T13:10:03.085Z,28.76
2022-08-10T13:11:20.148Z,28.89
2022-08-10T13:12:40.432Z,29.09
2022-08-10T13:13:46.207Z,29.26
2022-08-10T13:15:45.359Z,29.51
2022-08-10T13:16:41.927Z,29.76
2022-08-10T13:17:52.493Z,29.97
2022-08-10T13:18:59.564Z,30.13
2022-08-10T13:20:13.782Z,30.26
2022-08-10T13:21:21.020Z,30.42
2022-08-10T13:22:27.551Z,30.47
2022-08-10T13:23:32.772Z,30.51
2022-08-10T13:24:42.796Z,30.50
2022-08-10T13:25:48.523Z,30.48
2022-08-10T13:27:25.951Z,30.42
2022-08-10T13:28:37.148Z,30.36
2022-08-10T13:29:50.134Z,30.39
2022-08-10T13:30:55.527Z,30.48
2022-08-10T13:32:09.880Z,30.55
2022-08-10T13:33:18.033Z,30.64
2022-08-10T13:34:47.088Z,30.79
2022-08-10T13:35:49.981Z,30.87
2022-08-10T13:37:03.267Z,30.99
2022-08-10T13:38:07.202Z,31.12
2022-08-10T13:39:12.684Z,31.23
2022-08-10T13:40:20.422Z,31.33
2022-08-10T13:41:32.818Z,31.38
2022-08-10T13:42:38.727Z,31.40
2022-08-10T13:43:50.736Z,31.36
2022-08-10T13:44:55.878Z,31.34
2022-08-10T13:45:58.780Z,31.33
2022-08-10T13:47:02.242Z,31.30
2022-08-10T13:48:10.643Z,31.35
2022-08-10T13:49:15.777Z,31.37
2022-08-10T13:50:34.870Z,31.40
2022-08-10T13:51:53.917Z,31.52
2022-08-10T13:53:03.972Z,31.69
2022-08-10T13:54:10.612Z,31.82
2022-08-10T13:55:17.222Z,31.93
2022-08-10T13:56:23.502Z,32.00
2022-08-10T13:57:29.098Z,32.06
2022-08-10T13:58:33.829Z,32.08
2022-08-10T14:00:33.692Z,32.10
2022-08-10T14:01:02.678Z,32.12
2022-08-10T14:02:05.490Z,32.22
2022-08-10T14:03:11.773Z,32.25
2022-08-10T14:04:48.095Z,32.32
2022-08-10T14:05:53.054Z,32.39
2022-08-10T14:07:24.039Z,32.51
2022-08-10T14:08:35.353Z,32.61
2022-08-10T14:09:43.396Z,32.68
2022-08-10T14:11:09.661Z,32.75
2022-08-10T14:12:17.673Z,32.85
2022-08-10T14:13:20.612Z,32.91
2022-08-10T14:14:25.534Z,32.97
2022-08-10T14:15:29.438Z,33.02
2022-08-10T14:16:33.393Z,33.07
2022-08-10T14:17:41.337Z,33.09
2022-08-10T14:18:51.212Z,33.17
2022-08-10T14:19:58.475Z,33.25
2022-08-10T14:21:04.941Z,33.28
2022-08-10T14:22:11.553Z,33.34
2022-08-10T14:23:16.420Z,33.38
2022-08-10T14:24:20.866Z,33.44
2022-08-10T14:25:23.958Z,33.51
2022-08-10T14:26:29.121Z,33.56
2022-08-10T14:28:01.676Z,33.57
2022-08-10T14:29:04.551Z,33.56
2022-08-10T14:30:07.667Z,33.53
2022-08-10T14:31:13.442Z,33.48
2022-08-10T14:32:19.605Z,33.41
2022-08-10T14:33:24.929Z,33.37
2022-08-10T14:36:16.544Z,33.36
2022-08-10T14:36:21.327Z,33.35
2022-08-10T14:37:24.198Z,33.32
2022-08-10T14:38:57.352Z,33.40
2022-08-10T14:40:02.628Z,33.41
2022-08-10T14:42:01.800Z,33.39
2022-08-10T14:42:48.158Z,33.34
2022-08-10T14:43:57.812Z,33.32
2022-08-10T14:45:05.600Z,33.32
2022-08-10T14:46:11.605Z,33.36
2022-08-10T14:47:52.137Z,33.36
2022-08-10T14:48:48.947Z,33.38
2022-08-10T14:49:57.930Z,33.45
2022-08-10T14:51:04.084Z,33.47
2022-08-10T14:52:06.760Z,33.58
2022-08-10T14:53:17.981Z,33.61
2022-08-10T14:54:25.510Z,33.64
2022-08-10T14:55:31.450Z,33.66
2022-08-10T14:56:56.887Z,33.68
2022-08-10T14:58:20.294Z,33.51
2022-08-10T15:00:23.183Z,33.67
2022-08-10T15:00:56.809Z,33.67
2022-08-10T15:02:40.373Z,33.68
2022-08-10T15:03:58.673Z,33.74
2022-08-10T15:04:55.097Z,33.80
2022-08-10T15:06:02.429Z,33.90
2022-08-10T15:07:12.803Z,34.01
2022-08-10T15:08:16.408Z,34.13
2022-08-10T15:09:22.001Z,34.21
2022-08-10T15:10:24.964Z,34.26
2022-08-10T15:12:13.388Z,34.28
2022-08-10T15:12:58.720Z,34.25
2022-08-10T15:14:41.708Z,34.19
2022-08-10T15:15:31.746Z,34.11
2022-08-10T15:16:54.672Z,34.04
2022-08-10T15:18:02.835Z,33.98
2022-08-10T15:20:01.314Z,33.94
2022-08-10T15:20:33.429Z,33.87
2022-08-10T15:21:42.654Z,33.89
2022-08-10T15:22:50.881Z,33.89
2022-08-10T15:24:05.286Z,33.95